Accueil
METAR-TAF:

METAR-TAF

Aéroports :

La Chaux-de-Fonds, Suisse

Aéroport régional Les Éplatures

latitude: 47-05-03N, longitude: 006-47-37E, altitude: 1027 m

Observation

Le bulletin a été fait il y a 15 minutes, à 23:50 UTC
Vent calme
Température 13°C
Humidité 82%
Pression 1021 hPa
Visibilité 10 km ou plus
pas de nuages en-dessous de 1500 mètres et pas de cumulonimbus.

METAR: LSGC 282350Z AUTO 00000KT CAVOK 13/10 Q1021

Heure: 02:05 (00:05 UTC)

Prévision

Le bulletin a été fait il y a 7 heures et 57 minutes, à 16:08 UTC
Prévision valable du 28 à 16 UTC au 28 à 24 UTC
Vent 2 kt de direction variable
Visibilité 10 km ou plus
pas de nuages en-dessous de 1500 mètres et pas de cumulonimbus.
Temporairement
du 28 à 16 UTC au 28 à 19 UTC
Quelques nuages à une hauteur de 4500 ft, Cumulus congestus.

TAF: LSGC 281608Z 2816/2824 VRB02KT CAVOK TEMPO 2816/2819 FEW045TCU

Observations et prévisions météorologiques de plus de 4000 aéroports (messages METAR et TAF).

Les stations disponibles sont représentées par des disques jaunes et rouges sur la carte.

Passer la souris dessus pour voir le nom de la station.

Cliquer dessus pour voir les observations et prévisions météorologiques.

Pour changer de carte: cliquez sur les boutons verts avec une croix noire pour zoomer, sur le bouton vert avec un tiret pour effectuer un zoom arrière, ou sur les flèches vertes pour les cartes adjacentes.


METAR-TAF: